sensor_id;sensor_type;location;lat;lon;timestamp;pressure;altitude;pressure_sealevel;temperature;humidity
73952;BME280;62304;47.662;18.324;2023-09-19T00:02:03;99698.91;;;23.57;69.84
73952;BME280;62304;47.662;18.324;2023-09-19T00:05:16;99709.78;;;23.59;69.49
73952;BME280;62304;47.662;18.324;2023-09-19T00:08:21;99709.78;;;23.59;69.69
73952;BME280;62304;47.662;18.324;2023-09-19T00:11:25;99710.69;;;23.56;69.87
73952;BME280;62304;47.662;18.324;2023-09-19T00:14:30;99712.09;;;23.60;70.11
73952;BME280;62304;47.662;18.324;2023-09-19T00:17:40;99714.78;;;23.73;69.54
73952;BME280;62304;47.662;18.324;2023-09-19T00:20:43;99702.81;;;23.69;69.81
73952;BME280;62304;47.662;18.324;2023-09-19T00:23:51;99710.06;;;23.70;69.99
73952;BME280;62304;47.662;18.324;2023-09-19T00:26:54;99710.22;;;23.66;70.15
73952;BME280;62304;47.662;18.324;2023-09-19T00:29:59;99719.66;;;23.63;70.36
73952;BME280;62304;47.662;18.324;2023-09-19T00:33:04;99718.25;;;23.50;70.83
73952;BME280;62304;47.662;18.324;2023-09-19T00:36:11;99719.06;;;23.41;71.17
73952;BME280;62304;47.662;18.324;2023-09-19T00:39:13;99730.06;;;23.39;71.21
73952;BME280;62304;47.662;18.324;2023-09-19T00:42:20;99734.63;;;23.37;71.32
73952;BME280;62304;47.662;18.324;2023-09-19T00:45:24;99734.94;;;23.39;71.51
73952;BME280;62304;47.662;18.324;2023-09-19T00:48:30;99733.03;;;23.45;71.02
73952;BME280;62304;47.662;18.324;2023-09-19T00:51:34;99727.06;;;23.52;70.86
73952;BME280;62304;47.662;18.324;2023-09-19T00:54:39;99739.97;;;23.62;70.91
73952;BME280;62304;47.662;18.324;2023-09-19T00:57:42;99735.09;;;23.62;70.88
73952;BME280;62304;47.662;18.324;2023-09-19T01:04:18;99734.78;;;23.42;71.51
73952;BME280;62304;47.662;18.324;2023-09-19T01:07:21;99732.88;;;23.48;71.19
73952;BME280;62304;47.662;18.324;2023-09-19T01:10:26;99729.59;;;23.50;71.29
73952;BME280;62304;47.662;18.324;2023-09-19T01:13:36;99737.59;;;23.60;71.18
73952;BME280;62304;47.662;18.324;2023-09-19T01:16:50;99733.34;;;23.56;71.14
73952;BME280;62304;47.662;18.324;2023-09-19T01:29:42;99722.34;;;23.67;70.98
73952;BME280;62304;47.662;18.324;2023-09-19T01:32:50;99722.03;;;23.65;71.42
73952;BME280;62304;47.662;18.324;2023-09-19T01:35:55;99723.72;;;23.71;71.17
73952;BME280;62304;47.662;18.324;2023-09-19T01:39:13;99713.66;;;23.70;71.23
73952;BME280;62304;47.662;18.324;2023-09-19T01:46:15;99730.69;;;23.34;72.14
73952;BME280;62304;47.662;18.324;2023-09-19T01:49:33;99733.03;;;23.27;71.99
73952;BME280;62304;47.662;18.324;2023-09-19T01:52:47;99721.09;;;23.23;72.16
73952;BME280;62304;47.662;18.324;2023-09-19T01:55:52;99716.84;;;23.27;72.35
73952;BME280;62304;47.662;18.324;2023-09-19T01:58:59;99719.94;;;23.11;72.28
73952;BME280;62304;47.662;18.324;2023-09-19T02:02:06;99722.50;;;23.18;71.57
73952;BME280;62304;47.662;18.324;2023-09-19T02:05:11;99722.91;;;23.08;71.65
73952;BME280;62304;47.662;18.324;2023-09-19T02:08:22;99729.19;;;23.03;71.13
73952;BME280;62304;47.662;18.324;2023-09-19T02:11:31;99741.47;;;23.09;70.90
73952;BME280;62304;47.662;18.324;2023-09-19T02:14:34;99754.97;;;22.87;70.78
73952;BME280;62304;47.662;18.324;2023-09-19T02:17:38;99752.13;;;22.96;69.85
73952;BME280;62304;47.662;18.324;2023-09-19T02:20:45;99752.13;;;22.96;69.56
73952;BME280;62304;47.662;18.324;2023-09-19T02:23:49;99762.97;;;22.88;69.55
73952;BME280;62304;47.662;18.324;2023-09-19T02:26:52;99756.69;;;22.84;68.70
73952;BME280;62304;47.662;18.324;2023-09-19T02:29:55;99762.41;;;22.63;68.82
73952;BME280;62304;47.662;18.324;2023-09-19T02:32:58;99762.75;;;22.65;68.31
73952;BME280;62304;47.662;18.324;2023-09-19T02:36:05;99762.00;;;22.73;68.15
73952;BME280;62304;47.662;18.324;2023-09-19T02:39:08;99761.34;;;22.69;68.15
73952;BME280;62304;47.662;18.324;2023-09-19T02:42:12;99764.09;;;22.51;68.60
73952;BME280;62304;47.662;18.324;2023-09-19T02:45:19;99752.59;;;22.46;68.67
73952;BME280;62304;47.662;18.324;2023-09-19T02:48:28;99761.12;;;22.55;68.52
73952;BME280;62304;47.662;18.324;2023-09-19T02:51:32;99753.25;;;22.50;68.64
73952;BME280;62304;47.662;18.324;2023-09-19T02:54:36;99739.78;;;22.54;68.04
73952;BME280;62304;47.662;18.324;2023-09-19T02:57:39;99744.13;;;22.46;68.16
73952;BME280;62304;47.662;18.324;2023-09-19T03:00:46;99757.19;;;22.22;68.59
73952;BME280;62304;47.662;18.324;2023-09-19T03:03:54;99772.81;;;22.14;69.20
73952;BME280;62304;47.662;18.324;2023-09-19T03:06:57;99781.63;;;21.94;69.75
73952;BME280;62304;47.662;18.324;2023-09-19T03:10:05;99778.28;;;21.87;69.46
73952;BME280;62304;47.662;18.324;2023-09-19T03:13:09;99785.47;;;21.79;69.72
73952;BME280;62304;47.662;18.324;2023-09-19T03:16:13;99773.19;;;21.73;69.86
73952;BME280;62304;47.662;18.324;2023-09-19T03:19:20;99777.47;;;21.65;70.27
73952;BME280;62304;47.662;18.324;2023-09-19T03:22:23;99784.22;;;21.46;71.42
73952;BME280;62304;47.662;18.324;2023-09-19T03:25:28;99787.94;;;21.43;71.90
73952;BME280;62304;47.662;18.324;2023-09-19T03:28:34;99794.97;;;21.38;72.40
73952;BME280;62304;47.662;18.324;2023-09-19T03:31:38;99809.91;;;21.14;73.83
73952;BME280;62304;47.662;18.324;2023-09-19T03:34:42;99806.09;;;20.95;74.88
73952;BME280;62304;47.662;18.324;2023-09-19T03:37:47;99820.53;;;20.72;76.90
73952;BME280;62304;47.662;18.324;2023-09-19T03:40:50;99836.41;;;20.54;78.21
73952;BME280;62304;47.662;18.324;2023-09-19T03:43:53;99826.56;;;20.21;81.35
73952;BME280;62304;47.662;18.324;2023-09-19T03:46:56;99832.22;;;19.92;84.62
73952;BME280;62304;47.662;18.324;2023-09-19T03:49:59;99826.81;;;19.69;87.68
73952;BME280;62304;47.662;18.324;2023-09-19T03:53:04;99842.31;;;19.62;86.45
73952;BME280;62304;47.662;18.324;2023-09-19T03:56:10;99847.03;;;19.36;88.61
73952;BME280;62304;47.662;18.324;2023-09-19T03:59:13;99856.69;;;19.03;91.56
73952;BME280;62304;47.662;18.324;2023-09-19T04:02:16;99856.16;;;18.92;90.92
73952;BME280;62304;47.662;18.324;2023-09-19T04:05:31;99865.53;;;18.86;91.98
73952;BME280;62304;47.662;18.324;2023-09-19T04:08:35;99866.34;;;18.51;94.40
73952;BME280;62304;47.662;18.324;2023-09-19T04:11:39;99867.03;;;18.55;95.13
73952;BME280;62304;47.662;18.324;2023-09-19T04:14:43;99887.94;;;18.54;93.97
73952;BME280;62304;47.662;18.324;2023-09-19T04:17:46;99882.47;;;18.47;95.71
73952;BME280;62304;47.662;18.324;2023-09-19T04:20:50;99881.88;;;18.55;94.22
73952;BME280;62304;47.662;18.324;2023-09-19T04:23:53;99893.78;;;18.43;94.74
73952;BME280;62304;47.662;18.324;2023-09-19T04:26:56;99889.53;;;18.35;95.69
73952;BME280;62304;47.662;18.324;2023-09-19T04:30:00;99893.38;;;18.45;95.42
73952;BME280;62304;47.662;18.324;2023-09-19T04:33:04;99892.66;;;18.41;95.10
73952;BME280;62304;47.662;18.324;2023-09-19T04:36:10;99892.00;;;18.33;95.71
73952;BME280;62304;47.662;18.324;2023-09-19T04:39:32;99884.38;;;18.34;95.72
73952;BME280;62304;47.662;18.324;2023-09-19T04:42:40;99899.56;;;18.36;96.13
73952;BME280;62304;47.662;18.324;2023-09-19T04:45:45;99904.47;;;18.32;96.23
73952;BME280;62304;47.662;18.324;2023-09-19T04:48:49;99888.50;;;18.26;96.50
73952;BME280;62304;47.662;18.324;2023-09-19T04:51:52;99893.34;;;18.25;96.32
73952;BME280;62304;47.662;18.324;2023-09-19T04:54:56;99900.53;;;18.26;96.37
73952;BME280;62304;47.662;18.324;2023-09-19T04:57:58;99900.47;;;18.30;95.68
73952;BME280;62304;47.662;18.324;2023-09-19T05:01:01;99910.31;;;18.18;96.29
73952;BME280;62304;47.662;18.324;2023-09-19T05:04:05;99905.00;;;18.04;97.54
73952;BME280;62304;47.662;18.324;2023-09-19T05:07:09;99908.31;;;17.99;97.47
73952;BME280;62304;47.662;18.324;2023-09-19T05:10:13;99914.00;;;17.96;97.71
73952;BME280;62304;47.662;18.324;2023-09-19T05:13:17;99912.09;;;17.89;97.94
73952;BME280;62304;47.662;18.324;2023-09-19T05:16:19;99922.97;;;17.87;98.68
73952;BME280;62304;47.662;18.324;2023-09-19T05:19:23;99928.22;;;17.85;98.30
73952;BME280;62304;47.662;18.324;2023-09-19T05:22:29;99934.03;;;17.75;99.04
73952;BME280;62304;47.662;18.324;2023-09-19T05:25:33;99932.31;;;17.58;100.00
73952;BME280;62304;47.662;18.324;2023-09-19T05:28:39;99931.91;;;17.59;100.00
73952;BME280;62304;47.662;18.324;2023-09-19T05:31:42;99943.00;;;17.43;100.00
73952;BME280;62304;47.662;18.324;2023-09-19T05:34:46;99950.59;;;17.43;100.00
73952;BME280;62304;47.662;18.324;2023-09-19T05:37:56;99954.28;;;17.36;100.00
73952;BME280;62304;47.662;18.324;2023-09-19T05:41:00;99960.75;;;17.33;100.00
73952;BME280;62304;47.662;18.324;2023-09-19T05:44:04;99966.34;;;17.33;100.00
73952;BME280;62304;47.662;18.324;2023-09-19T05:47:09;99976.41;;;17.31;100.00
73952;BME280;62304;47.662;18.324;2023-09-19T05:50:12;99975.25;;;17.28;100.00
73952;BME280;62304;47.662;18.324;2023-09-19T05:53:17;99975.72;;;17.23;100.00
73952;BME280;62304;47.662;18.324;2023-09-19T05:56:21;99981.78;;;17.18;100.00
73952;BME280;62304;47.662;18.324;2023-09-19T05:59:25;99991.78;;;17.19;100.00
73952;BME280;62304;47.662;18.324;2023-09-19T06:02:31;99987.34;;;17.22;100.00
73952;BME280;62304;47.662;18.324;2023-09-19T06:05:36;99996.91;;;17.24;100.00
73952;BME280;62304;47.662;18.324;2023-09-19T06:08:39;99996.09;;;17.27;100.00
73952;BME280;62304;47.662;18.324;2023-09-19T06:11:42;99991.31;;;17.24;100.00
73952;BME280;62304;47.662;18.324;2023-09-19T06:14:46;99997.78;;;17.21;100.00
73952;BME280;62304;47.662;18.324;2023-09-19T06:17:53;100002.63;;;17.17;100.00
73952;BME280;62304;47.662;18.324;2023-09-19T06:21:01;100010.34;;;17.10;100.00
73952;BME280;62304;47.662;18.324;2023-09-19T06:24:10;100009.13;;;17.11;100.00
73952;BME280;62304;47.662;18.324;2023-09-19T06:27:14;100018.81;;;17.06;100.00
73952;BME280;62304;47.662;18.324;2023-09-19T06:30:18;100024.72;;;17.12;100.00
73952;BME280;62304;47.662;18.324;2023-09-19T06:33:21;100018.81;;;17.06;100.00
73952;BME280;62304;47.662;18.324;2023-09-19T06:36:25;100025.88;;;17.18;100.00
73952;BME280;62304;47.662;18.324;2023-09-19T06:39:28;100023.72;;;17.25;100.00
73952;BME280;62304;47.662;18.324;2023-09-19T06:42:31;100024.88;;;17.28;100.00
73952;BME280;62304;47.662;18.324;2023-09-19T06:45:34;100028.38;;;17.35;100.00
73952;BME280;62304;47.662;18.324;2023-09-19T06:48:38;100027.16;;;17.36;100.00
73952;BME280;62304;47.662;18.324;2023-09-19T06:51:41;100026.75;;;17.38;100.00
73952;BME280;62304;47.662;18.324;2023-09-19T06:54:45;100033.50;;;17.44;100.00
73952;BME280;62304;47.662;18.324;2023-09-19T06:57:50;100026.25;;;17.46;100.00
73952;BME280;62304;47.662;18.324;2023-09-19T07:00:54;100017.69;;;17.57;100.00
73952;BME280;62304;47.662;18.324;2023-09-19T07:03:57;100027.25;;;17.59;100.00
73952;BME280;62304;47.662;18.324;2023-09-19T07:07:01;100026.28;;;17.69;100.00
73952;BME280;62304;47.662;18.324;2023-09-19T07:10:04;100032.94;;;17.79;100.00
73952;BME280;62304;47.662;18.324;2023-09-19T07:13:08;100037.56;;;17.89;100.00
73952;BME280;62304;47.662;18.324;2023-09-19T07:16:14;100047.88;;;17.95;100.00
73952;BME280;62304;47.662;18.324;2023-09-19T07:19:30;100041.78;;;18.00;100.00
73952;BME280;62304;47.662;18.324;2023-09-19T07:22:37;100050.41;;;18.13;100.00
73952;BME280;62304;47.662;18.324;2023-09-19T07:25:42;100044.22;;;18.21;100.00
73952;BME280;62304;47.662;18.324;2023-09-19T07:28:46;100046.84;;;18.32;100.00
73952;BME280;62304;47.662;18.324;2023-09-19T07:31:50;100051.41;;;18.45;100.00
73952;BME280;62304;47.662;18.324;2023-09-19T07:34:54;100052.41;;;18.55;100.00
73952;BME280;62304;47.662;18.324;2023-09-19T07:37:58;100054.66;;;18.63;100.00
73952;BME280;62304;47.662;18.324;2023-09-19T07:41:04;100057.34;;;18.70;100.00
73952;BME280;62304;47.662;18.324;2023-09-19T07:44:08;100060.09;;;18.74;100.00
73952;BME280;62304;47.662;18.324;2023-09-19T07:47:14;100060.09;;;18.93;100.00
73952;BME280;62304;47.662;18.324;2023-09-19T07:50:18;100062.97;;;18.90;100.00
73952;BME280;62304;47.662;18.324;2023-09-19T07:53:21;100068.88;;;18.95;100.00
73952;BME280;62304;47.662;18.324;2023-09-19T07:56:25;100081.63;;;19.00;100.00
73952;BME280;62304;47.662;18.324;2023-09-19T07:59:31;100080.19;;;18.92;100.00
73952;BME280;62304;47.662;18.324;2023-09-19T08:02:35;100093.09;;;18.89;100.00
73952;BME280;62304;47.662;18.324;2023-09-19T08:05:41;100092.81;;;18.84;100.00
73952;BME280;62304;47.662;18.324;2023-09-19T08:08:46;100094.66;;;18.90;100.00
73952;BME280;62304;47.662;18.324;2023-09-19T08:11:49;100087.47;;;18.89;100.00
73952;BME280;62304;47.662;18.324;2023-09-19T08:14:53;100093.22;;;19.02;100.00
73952;BME280;62304;47.662;18.324;2023-09-19T08:17:57;100100.94;;;18.98;100.00
73952;BME280;62304;47.662;18.324;2023-09-19T08:21:03;100103.81;;;18.94;100.00
73952;BME280;62304;47.662;18.324;2023-09-19T08:24:07;100094.31;;;19.08;100.00
73952;BME280;62304;47.662;18.324;2023-09-19T08:27:11;100089.84;;;19.10;100.00
73952;BME280;62304;47.662;18.324;2023-09-19T08:30:16;100087.84;;;19.11;100.00
73952;BME280;62304;47.662;18.324;2023-09-19T08:33:20;100075.28;;;19.15;100.00
73952;BME280;62304;47.662;18.324;2023-09-19T08:36:24;100107.56;;;19.07;100.00
73952;BME280;62304;47.662;18.324;2023-09-19T08:39:27;100123.84;;;18.96;100.00
73952;BME280;62304;47.662;18.324;2023-09-19T08:42:50;100125.81;;;18.99;100.00
73952;BME280;62304;47.662;18.324;2023-09-19T08:46:12;100122.66;;;18.97;100.00
73952;BME280;62304;47.662;18.324;2023-09-19T08:52:51;100120.69;;;18.94;100.00
73952;BME280;62304;47.662;18.324;2023-09-19T08:55:59;100117.53;;;18.92;100.00
73952;BME280;62304;47.662;18.324;2023-09-19T08:59:05;100109.66;;;19.03;100.00
73952;BME280;62304;47.662;18.324;2023-09-19T09:02:14;100126.38;;;19.10;100.00
73952;BME280;62304;47.662;18.324;2023-09-19T09:05:22;100139.59;;;19.13;100.00
73952;BME280;62304;47.662;18.324;2023-09-19T09:08:27;100133.41;;;19.41;100.00
73952;BME280;62304;47.662;18.324;2023-09-19T09:11:33;100112.31;;;19.49;100.00
73952;BME280;62304;47.662;18.324;2023-09-19T09:14:36;100119.03;;;19.71;100.00
73952;BME280;62304;47.662;18.324;2023-09-19T09:17:39;100123.00;;;20.09;98.91
73952;BME280;62304;47.662;18.324;2023-09-19T09:20:44;100116.44;;;20.44;96.95
73952;BME280;62304;47.662;18.324;2023-09-19T09:23:49;100107.16;;;20.75;95.49
73952;BME280;62304;47.662;18.324;2023-09-19T09:26:55;100098.69;;;21.04;93.39
73952;BME280;62304;47.662;18.324;2023-09-19T09:29:57;100096.97;;;21.35;92.47
73952;BME280;62304;47.662;18.324;2023-09-19T09:33:12;100106.59;;;21.50;91.79
73952;BME280;62304;47.662;18.324;2023-09-19T09:36:16;100104.00;;;22.30;87.03
73952;BME280;62304;47.662;18.324;2023-09-19T09:39:36;100094.03;;;22.51;85.23
73952;BME280;62304;47.662;18.324;2023-09-19T09:42:39;100081.91;;;23.06;84.03
73952;BME280;62304;47.662;18.324;2023-09-19T09:45:43;100074.63;;;24.18;79.62
73952;BME280;62304;47.662;18.324;2023-09-19T09:48:59;100087.91;;;24.48;76.66
73952;BME280;62304;47.662;18.324;2023-09-19T09:52:22;100096.50;;;23.78;77.69
73952;BME280;62304;47.662;18.324;2023-09-19T09:55:27;100096.84;;;22.85;78.75
73952;BME280;62304;47.662;18.324;2023-09-19T09:58:34;100105.00;;;22.83;77.75
73952;BME280;62304;47.662;18.324;2023-09-19T10:01:47;100100.28;;;22.67;78.92
73952;BME280;62304;47.662;18.324;2023-09-19T10:04:56;100099.53;;;22.67;80.15
73952;BME280;62304;47.662;18.324;2023-09-19T10:08:13;100105.84;;;22.71;79.76
73952;BME280;62304;47.662;18.324;2023-09-19T10:11:22;100110.66;;;22.83;78.40
73952;BME280;62304;47.662;18.324;2023-09-19T10:14:36;100118.37;;;22.70;79.54
73952;BME280;62304;47.662;18.324;2023-09-19T10:17:43;100117.63;;;22.91;77.54
73952;BME280;62304;47.662;18.324;2023-09-19T10:20:47;100119.72;;;22.78;78.87
73952;BME280;62304;47.662;18.324;2023-09-19T10:23:53;100128.03;;;22.94;78.19
73952;BME280;62304;47.662;18.324;2023-09-19T10:26:59;100138.94;;;22.83;79.41
73952;BME280;62304;47.662;18.324;2023-09-19T10:30:08;100128.47;;;23.14;78.92
73952;BME280;62304;47.662;18.324;2023-09-19T10:33:15;100150.81;;;23.12;79.57
73952;BME280;62304;47.662;18.324;2023-09-19T10:36:24;100158.16;;;22.88;77.57
73952;BME280;62304;47.662;18.324;2023-09-19T10:39:32;100158.47;;;22.31;78.15
73952;BME280;62304;47.662;18.324;2023-09-19T10:42:40;100160.97;;;22.04;78.82
73952;BME280;62304;47.662;18.324;2023-09-19T10:45:46;100157.25;;;22.19;77.89
73952;BME280;62304;47.662;18.324;2023-09-19T10:48:53;100149.78;;;22.38;76.66
73952;BME280;62304;47.662;18.324;2023-09-19T10:51:59;100147.91;;;22.69;76.26
73952;BME280;62304;47.662;18.324;2023-09-19T10:55:04;100149.59;;;22.66;76.58
73952;BME280;62304;47.662;18.324;2023-09-19T10:58:09;100153.38;;;22.51;76.42
73952;BME280;62304;47.662;18.324;2023-09-19T11:01:18;100165.13;;;22.37;76.45
73952;BME280;62304;47.662;18.324;2023-09-19T11:04:29;100166.03;;;22.59;75.86
73952;BME280;62304;47.662;18.324;2023-09-19T11:08:01;100171.31;;;23.03;74.54
73952;BME280;62304;47.662;18.324;2023-09-19T11:14:45;100143.59;;;25.08;66.82
73952;BME280;62304;47.662;18.324;2023-09-19T11:17:47;100150.69;;;24.77;67.55
73952;BME280;62304;47.662;18.324;2023-09-19T11:24:39;100146.72;;;26.15;63.49
73952;BME280;62304;47.662;18.324;2023-09-19T11:31:41;100150.22;;;27.65;57.95
73952;BME280;62304;47.662;18.324;2023-09-19T11:34:47;100139.97;;;27.30;57.70
73952;BME280;62304;47.662;18.324;2023-09-19T11:44:33;100138.56;;;29.47;50.20
73952;BME280;62304;47.662;18.324;2023-09-19T11:47:38;100132.94;;;29.07;51.19
73952;BME280;62304;47.662;18.324;2023-09-19T11:50:42;100136.63;;;27.75;54.35
73952;BME280;62304;47.662;18.324;2023-09-19T11:53:50;100136.41;;;28.56;52.95
73952;BME280;62304;47.662;18.324;2023-09-19T11:56:55;100134.28;;;28.51;52.44
73952;BME280;62304;47.662;18.324;2023-09-19T11:59:58;100128.03;;;29.33;50.80
73952;BME280;62304;47.662;18.324;2023-09-19T12:03:08;100131.28;;;29.20;49.28
73952;BME280;62304;47.662;18.324;2023-09-19T12:06:15;100130.72;;;29.16;49.84
73952;BME280;62304;47.662;18.324;2023-09-19T12:09:19;100116.97;;;30.28;49.29
73952;BME280;62304;47.662;18.324;2023-09-19T12:12:24;100121.19;;;30.80;45.24
73952;BME280;62304;47.662;18.324;2023-09-19T12:15:33;100114.84;;;30.23;46.39
73952;BME280;62304;47.662;18.324;2023-09-19T12:18:41;100115.81;;;29.32;47.83
73952;BME280;62304;47.662;18.324;2023-09-19T12:22:08;100116.94;;;28.95;48.34
73952;BME280;62304;47.662;18.324;2023-09-19T12:25:13;100112.69;;;29.30;47.21
73952;BME280;62304;47.662;18.324;2023-09-19T12:28:20;100113.47;;;29.31;48.00
73952;BME280;62304;47.662;18.324;2023-09-19T12:31:28;100121.41;;;29.67;47.79
73952;BME280;62304;47.662;18.324;2023-09-19T12:34:39;100120.38;;;30.01;46.80
73952;BME280;62304;47.662;18.324;2023-09-19T12:37:51;100106.88;;;29.70;47.48
73952;BME280;62304;47.662;18.324;2023-09-19T12:40:58;100103.16;;;29.39;47.31
73952;BME280;62304;47.662;18.324;2023-09-19T12:44:04;100109.25;;;29.01;48.19
73952;BME280;62304;47.662;18.324;2023-09-19T12:47:16;100105.41;;;29.80;46.70
73952;BME280;62304;47.662;18.324;2023-09-19T12:50:23;100099.59;;;28.78;49.28
73952;BME280;62304;47.662;18.324;2023-09-19T12:53:33;100111.75;;;28.73;49.36
73952;BME280;62304;47.662;18.324;2023-09-19T12:56:43;100101.09;;;29.39;47.75
73952;BME280;62304;47.662;18.324;2023-09-19T12:59:52;100100.97;;;28.83;49.05
73952;BME280;62304;47.662;18.324;2023-09-19T13:06:52;100101.84;;;28.94;48.05
73952;BME280;62304;47.662;18.324;2023-09-19T13:10:03;100113.59;;;28.22;50.44
73952;BME280;62304;47.662;18.324;2023-09-19T13:13:23;100116.91;;;27.57;51.33
73952;BME280;62304;47.662;18.324;2023-09-19T13:16:30;100124.06;;;27.52;50.32
73952;BME280;62304;47.662;18.324;2023-09-19T13:19:37;100126.59;;;27.50;50.99
73952;BME280;62304;47.662;18.324;2023-09-19T13:22:43;100111.75;;;27.17;50.91
73952;BME280;62304;47.662;18.324;2023-09-19T13:25:56;100116.00;;;27.94;49.83
73952;BME280;62304;47.662;18.324;2023-09-19T13:29:02;100111.19;;;28.35;48.76
73952;BME280;62304;47.662;18.324;2023-09-19T13:32:05;100109.34;;;28.92;47.30
73952;BME280;62304;47.662;18.324;2023-09-19T13:35:08;100113.44;;;28.65;47.72
73952;BME280;62304;47.662;18.324;2023-09-19T13:38:15;100111.78;;;28.39;48.22
73952;BME280;62304;47.662;18.324;2023-09-19T13:41:18;100111.66;;;28.33;48.64
73952;BME280;62304;47.662;18.324;2023-09-19T13:44:21;100112.09;;;28.26;49.16
73952;BME280;62304;47.662;18.324;2023-09-19T13:47:24;100118.44;;;28.01;49.41
73952;BME280;62304;47.662;18.324;2023-09-19T13:50:30;100122.88;;;27.73;50.39
73952;BME280;62304;47.662;18.324;2023-09-19T13:53:34;100116.78;;;27.95;49.65
73952;BME280;62304;47.662;18.324;2023-09-19T13:56:37;100135.28;;;27.70;50.25
73952;BME280;62304;47.662;18.324;2023-09-19T13:59:41;100132.78;;;27.49;50.16
73952;BME280;62304;47.662;18.324;2023-09-19T14:02:44;100129.56;;;27.41;49.97
73952;BME280;62304;47.662;18.324;2023-09-19T14:05:51;100131.34;;;27.68;50.13
73952;BME280;62304;47.662;18.324;2023-09-19T14:08:54;100136.22;;;27.24;50.64
73952;BME280;62304;47.662;18.324;2023-09-19T14:11:58;100130.44;;;26.95;51.43
73952;BME280;62304;47.662;18.324;2023-09-19T14:15:01;100129.13;;;26.58;52.24
73952;BME280;62304;47.662;18.324;2023-09-19T14:18:04;100129.50;;;26.42;52.70
73952;BME280;62304;47.662;18.324;2023-09-19T14:21:07;100136.38;;;26.59;52.85
73952;BME280;62304;47.662;18.324;2023-09-19T14:24:17;100133.38;;;25.88;54.68
73952;BME280;62304;47.662;18.324;2023-09-19T14:27:20;100135.44;;;25.88;54.57
73952;BME280;62304;47.662;18.324;2023-09-19T14:30:23;100135.56;;;25.43;55.84
73952;BME280;62304;47.662;18.324;2023-09-19T14:33:26;100141.84;;;25.56;55.46
73952;BME280;62304;47.662;18.324;2023-09-19T14:36:30;100146.28;;;25.48;55.33
73952;BME280;62304;47.662;18.324;2023-09-19T14:39:33;100147.56;;;25.11;56.08
73952;BME280;62304;47.662;18.324;2023-09-19T14:42:39;100150.56;;;25.07;56.18
73952;BME280;62304;47.662;18.324;2023-09-19T14:45:42;100151.19;;;25.02;56.66
73952;BME280;62304;47.662;18.324;2023-09-19T14:48:45;100150.88;;;25.00;57.26
73952;BME280;62304;47.662;18.324;2023-09-19T14:51:56;100145.69;;;25.26;56.45
73952;BME280;62304;47.662;18.324;2023-09-19T14:55:10;100144.41;;;25.36;57.26
73952;BME280;62304;47.662;18.324;2023-09-19T14:58:19;100146.31;;;25.03;57.06
73952;BME280;62304;47.662;18.324;2023-09-19T15:01:25;100153.53;;;24.77;57.51
73952;BME280;62304;47.662;18.324;2023-09-19T15:04:32;100151.88;;;24.49;58.39
73952;BME280;62304;47.662;18.324;2023-09-19T15:07:37;100157.00;;;24.23;58.97
73952;BME280;62304;47.662;18.324;2023-09-19T15:10:40;100156.28;;;24.01;60.03
73952;BME280;62304;47.662;18.324;2023-09-19T15:13:52;100162.37;;;23.91;60.20
73952;BME280;62304;47.662;18.324;2023-09-19T15:16:57;100165.69;;;23.89;60.29
73952;BME280;62304;47.662;18.324;2023-09-19T15:20:03;100161.00;;;23.74;61.23
73952;BME280;62304;47.662;18.324;2023-09-19T15:23:09;100166.03;;;23.70;60.94
73952;BME280;62304;47.662;18.324;2023-09-19T15:26:15;100167.91;;;23.73;61.07
73952;BME280;62304;47.662;18.324;2023-09-19T15:29:24;100168.78;;;23.61;61.90
73952;BME280;62304;47.662;18.324;2023-09-19T15:32:27;100165.16;;;23.60;61.58
73952;BME280;62304;47.662;18.324;2023-09-19T15:35:31;100174.34;;;23.43;62.41
73952;BME280;62304;47.662;18.324;2023-09-19T15:39:02;100176.84;;;23.41;62.59
73952;BME280;62304;47.662;18.324;2023-09-19T15:42:06;100176.97;;;23.37;63.68
73952;BME280;62304;47.662;18.324;2023-09-19T15:45:11;100179.75;;;23.28;63.81
73952;BME280;62304;47.662;18.324;2023-09-19T15:48:19;100169.81;;;23.11;64.14
73952;BME280;62304;47.662;18.324;2023-09-19T15:51:25;100157.62;;;23.02;64.20
73952;BME280;62304;47.662;18.324;2023-09-19T15:54:29;100157.00;;;22.98;64.48
73952;BME280;62304;47.662;18.324;2023-09-19T15:57:34;100163.53;;;22.73;64.95
73952;BME280;62304;47.662;18.324;2023-09-19T16:00:40;100159.78;;;22.64;64.86
73952;BME280;62304;47.662;18.324;2023-09-19T16:03:52;100163.13;;;22.50;65.41
73952;BME280;62304;47.662;18.324;2023-09-19T16:06:56;100172.59;;;22.31;67.17
73952;BME280;62304;47.662;18.324;2023-09-19T16:10:00;100172.97;;;22.20;67.36
73952;BME280;62304;47.662;18.324;2023-09-19T16:13:06;100165.72;;;22.07;68.86
73952;BME280;62304;47.662;18.324;2023-09-19T16:16:14;100158.16;;;21.91;70.16
73952;BME280;62304;47.662;18.324;2023-09-19T16:19:19;100166.41;;;21.86;70.77
73952;BME280;62304;47.662;18.324;2023-09-19T16:22:23;100161.75;;;21.79;70.18
73952;BME280;62304;47.662;18.324;2023-09-19T16:25:27;100175.03;;;21.66;72.48
73952;BME280;62304;47.662;18.324;2023-09-19T16:28:32;100175.94;;;21.63;73.14
73952;BME280;62304;47.662;18.324;2023-09-19T16:31:43;100183.13;;;21.52;74.44
73952;BME280;62304;47.662;18.324;2023-09-19T16:34:50;100184.25;;;21.42;75.16
73952;BME280;62304;47.662;18.324;2023-09-19T16:37:52;100177.91;;;21.38;75.15
73952;BME280;62304;47.662;18.324;2023-09-19T16:40:58;100190.53;;;21.33;75.00
73952;BME280;62304;47.662;18.324;2023-09-19T16:44:02;100191.94;;;21.13;76.56